createdAt,value
2019-05-19T00:02:13.032Z,12.81
2019-05-19T00:04:39.816Z,12.81
2019-05-19T00:07:06.502Z,12.83
2019-05-19T00:09:33.185Z,12.79
2019-05-19T00:11:59.839Z,12.83
2019-05-19T00:14:26.553Z,12.91
2019-05-19T00:16:53.227Z,12.87
2019-05-19T00:19:26.898Z,12.82
2019-05-19T00:21:48.690Z,12.89
2019-05-19T00:24:15.370Z,12.77
2019-05-19T00:26:43.149Z,12.74
2019-05-19T00:29:10.046Z,12.62
2019-05-19T00:31:36.729Z,12.54
2019-05-19T00:34:03.539Z,12.46
2019-05-19T00:36:30.286Z,12.50
2019-05-19T00:38:56.977Z,12.48
2019-05-19T00:41:23.771Z,12.48
2019-05-19T00:43:50.558Z,12.46
2019-05-19T00:46:17.325Z,12.43
2019-05-19T00:48:44.809Z,12.46
2019-05-19T00:51:11.835Z,12.42
2019-05-19T00:53:38.510Z,12.38
2019-05-19T00:56:05.320Z,12.41
2019-05-19T00:58:32.931Z,12.41
2019-05-19T01:00:59.753Z,12.36
2019-05-19T01:03:26.463Z,12.34
2019-05-19T01:05:53.244Z,12.28
2019-05-19T01:08:20.276Z,12.25
2019-05-19T01:10:47.045Z,12.26
2019-05-19T01:13:15.686Z,12.23
2019-05-19T01:15:42.608Z,12.19
2019-05-19T01:18:09.300Z,12.18
2019-05-19T01:20:36.084Z,12.08
2019-05-19T01:23:02.905Z,12.08
2019-05-19T01:25:29.660Z,12.13
2019-05-19T01:27:56.582Z,12.15
2019-05-19T01:30:23.731Z,12.09
2019-05-19T01:32:50.642Z,12.08
2019-05-19T01:35:17.321Z,12.02
2019-05-19T01:37:44.007Z,11.98
2019-05-19T01:40:11.912Z,11.95
2019-05-19T01:42:38.602Z,11.95
2019-05-19T01:45:05.610Z,11.93
2019-05-19T01:47:32.294Z,11.93
2019-05-19T01:50:16.547Z,11.88
2019-05-19T01:52:27.573Z,11.89
2019-05-19T01:54:54.271Z,11.85
2019-05-19T01:57:21.051Z,11.81
2019-05-19T01:59:47.762Z,11.74
2019-05-19T02:02:14.480Z,11.71
2019-05-19T02:04:41.293Z,11.73
2019-05-19T02:07:08.092Z,11.66
2019-05-19T02:09:34.910Z,11.69
2019-05-19T02:12:01.700Z,11.70
2019-05-19T02:14:28.452Z,11.72
2019-05-19T02:16:55.321Z,11.77
2019-05-19T02:19:22.182Z,11.74
2019-05-19T02:21:48.964Z,11.70
2019-05-19T02:24:15.765Z,11.69
2019-05-19T02:26:42.558Z,11.71
2019-05-19T02:29:09.350Z,11.66
2019-05-19T02:31:36.080Z,11.71
2019-05-19T02:34:03.066Z,11.63
2019-05-19T02:36:29.748Z,11.60
2019-05-19T02:38:56.459Z,11.53
2019-05-19T02:41:25.123Z,11.51
2019-05-19T02:43:52.443Z,11.51
2019-05-19T02:46:19.622Z,11.54
2019-05-19T02:48:46.532Z,11.57
2019-05-19T02:51:13.754Z,11.53
2019-05-19T02:53:42.419Z,11.55
2019-05-19T02:56:09.704Z,11.52
2019-05-19T02:58:36.808Z,11.48
2019-05-19T03:01:03.485Z,11.46
2019-05-19T03:03:30.212Z,11.50
2019-05-19T03:05:57.013Z,11.50
2019-05-19T03:08:23.706Z,11.49
2019-05-19T03:10:51.422Z,11.69
2019-05-19T03:13:18.113Z,11.66
2019-05-19T03:15:44.797Z,11.57
2019-05-19T03:18:11.493Z,11.66
2019-05-19T03:20:38.153Z,11.98
2019-05-19T03:23:04.830Z,12.01
2019-05-19T03:25:31.515Z,11.83
2019-05-19T03:27:58.323Z,11.79
2019-05-19T03:30:53.466Z,11.90
2019-05-19T03:33:23.517Z,11.88
2019-05-19T03:35:50.175Z,12.01
2019-05-19T03:38:16.858Z,12.16
2019-05-19T03:40:43.665Z,12.04
2019-05-19T03:43:10.637Z,11.96
2019-05-19T03:45:37.538Z,11.97
2019-05-19T03:48:04.426Z,11.99
2019-05-19T03:50:31.209Z,12.15
2019-05-19T03:52:58.136Z,12.10
2019-05-19T03:55:24.797Z,12.05
2019-05-19T03:57:51.475Z,11.93
2019-05-19T04:00:19.668Z,11.98
2019-05-19T04:02:46.364Z,11.87
2019-05-19T04:05:13.250Z,11.69
2019-05-19T04:07:40.303Z,11.64
2019-05-19T04:10:07.541Z,11.67
2019-05-19T04:12:34.328Z,11.58
2019-05-19T04:15:02.314Z,11.57
2019-05-19T04:17:29.084Z,11.41
2019-05-19T04:19:55.777Z,11.44
2019-05-19T04:22:22.813Z,11.61
2019-05-19T04:24:51.405Z,11.54
2019-05-19T04:27:18.115Z,11.58
2019-05-19T04:29:44.836Z,11.75
2019-05-19T04:32:11.490Z,11.72
2019-05-19T04:34:38.182Z,11.69
2019-05-19T04:37:05.150Z,11.47
2019-05-19T04:39:32.112Z,11.70
2019-05-19T04:41:58.807Z,11.66
2019-05-19T04:44:25.586Z,11.58
2019-05-19T04:46:52.414Z,11.24
2019-05-19T04:49:19.077Z,11.57
2019-05-19T04:51:45.766Z,11.54
2019-05-19T04:54:13.577Z,11.52
2019-05-19T04:56:40.258Z,11.56
2019-05-19T04:59:06.945Z,11.55
2019-05-19T05:01:33.634Z,11.60
2019-05-19T05:04:00.338Z,11.59
2019-05-19T05:06:27.058Z,11.63
2019-05-19T05:08:53.858Z,11.66
2019-05-19T05:11:20.520Z,11.62
2019-05-19T05:13:47.208Z,11.61
2019-05-19T05:16:14.984Z,11.65
2019-05-19T05:18:41.688Z,11.65
2019-05-19T05:21:08.654Z,11.68
2019-05-19T05:23:35.351Z,11.76
2019-05-19T05:26:02.052Z,11.80
2019-05-19T05:28:28.754Z,11.78
2019-05-19T05:30:55.511Z,11.85
2019-05-19T05:33:22.205Z,11.80
2019-05-19T05:35:48.986Z,11.72
2019-05-19T05:38:16.237Z,11.78
2019-05-19T05:40:42.928Z,11.78
2019-05-19T05:43:09.617Z,11.75
2019-05-19T05:45:36.316Z,11.83
2019-05-19T05:48:03.138Z,11.89
2019-05-19T05:50:29.818Z,11.97
2019-05-19T05:52:56.604Z,12.06
2019-05-19T05:55:23.402Z,12.13
2019-05-19T05:57:50.081Z,11.97
2019-05-19T06:00:17.082Z,12.01
2019-05-19T06:02:43.740Z,12.08
2019-05-19T06:05:10.615Z,12.06
2019-05-19T06:07:37.303Z,12.01
2019-05-19T06:10:04.961Z,11.98
2019-05-19T06:12:31.651Z,12.07
2019-05-19T06:14:58.370Z,12.20
2019-05-19T06:17:25.079Z,12.21
2019-05-19T06:19:51.838Z,12.24
2019-05-19T06:22:18.716Z,12.32
2019-05-19T06:24:45.388Z,12.36
2019-05-19T06:27:12.061Z,12.34
2019-05-19T06:29:38.847Z,12.45
2019-05-19T06:32:13.588Z,12.49
2019-05-19T06:34:40.278Z,12.51
2019-05-19T06:37:06.954Z,12.51
2019-05-19T06:39:33.623Z,12.51
2019-05-19T06:42:00.477Z,12.36
2019-05-19T06:44:27.217Z,12.38
2019-05-19T06:46:53.983Z,12.48
2019-05-19T06:49:20.756Z,12.50
2019-05-19T06:51:47.539Z,12.52
2019-05-19T06:54:14.234Z,12.62
2019-05-19T06:56:40.939Z,12.66
2019-05-19T06:59:07.600Z,12.58
2019-05-19T07:01:34.304Z,12.53
2019-05-19T07:04:00.961Z,12.59
2019-05-19T07:06:27.734Z,12.58
2019-05-19T07:08:55.818Z,12.70
2019-05-19T07:11:22.519Z,12.72
2019-05-19T07:13:49.292Z,12.78
2019-05-19T07:16:15.983Z,12.69
2019-05-19T07:18:42.673Z,12.76
2019-05-19T07:21:09.365Z,12.81
2019-05-19T07:23:37.273Z,12.90
2019-05-19T07:26:04.154Z,12.99
2019-05-19T07:28:30.941Z,13.00
2019-05-19T07:30:57.726Z,12.95
2019-05-19T07:33:24.405Z,12.92
2019-05-19T07:35:51.093Z,12.96
2019-05-19T07:38:17.897Z,13.00
2019-05-19T07:40:44.656Z,13.02
2019-05-19T07:43:11.422Z,13.11
2019-05-19T07:45:39.251Z,13.11
2019-05-19T07:48:05.971Z,13.31
2019-05-19T07:50:32.644Z,13.28
2019-05-19T07:53:12.366Z,13.43
2019-05-19T07:55:39.053Z,13.42
2019-05-19T07:58:05.832Z,13.50
2019-05-19T08:00:32.506Z,13.64
2019-05-19T08:02:59.242Z,13.71
2019-05-19T08:05:26.016Z,13.83
2019-05-19T08:07:52.687Z,14.05
2019-05-19T08:10:19.418Z,13.95
2019-05-19T08:12:46.062Z,14.19
2019-05-19T08:15:13.040Z,14.12
2019-05-19T08:17:39.803Z,13.96
2019-05-19T08:20:06.679Z,14.06
2019-05-19T08:22:34.566Z,14.15
2019-05-19T08:25:01.227Z,14.09
2019-05-19T08:27:27.899Z,14.06
2019-05-19T08:29:54.793Z,14.14
2019-05-19T08:32:21.582Z,14.25
2019-05-19T08:34:48.269Z,14.40
2019-05-19T08:37:15.148Z,14.40
2019-05-19T08:39:41.782Z,14.63
2019-05-19T08:42:08.461Z,14.71
2019-05-19T08:44:35.258Z,14.72
2019-05-19T08:47:01.985Z,14.71
2019-05-19T08:49:28.720Z,14.84
2019-05-19T08:51:55.468Z,14.86
2019-05-19T08:54:22.176Z,15.06
2019-05-19T08:56:49.393Z,15.08
2019-05-19T08:59:16.095Z,15.06
2019-05-19T09:01:42.759Z,15.35
2019-05-19T09:04:09.535Z,15.48
2019-05-19T09:06:36.230Z,15.59
2019-05-19T09:09:04.292Z,15.73
2019-05-19T09:11:31.182Z,16.02
2019-05-19T09:13:58.031Z,16.29
2019-05-19T09:16:24.682Z,16.37
2019-05-19T09:18:51.476Z,16.28
2019-05-19T09:21:18.159Z,16.28
2019-05-19T09:23:44.925Z,16.24
2019-05-19T09:26:11.623Z,16.33
2019-05-19T09:28:38.382Z,16.32
2019-05-19T09:31:05.187Z,16.56
2019-05-19T09:33:31.877Z,16.69
2019-05-19T09:35:58.655Z,16.83
2019-05-19T09:38:25.430Z,17.06
2019-05-19T09:40:52.115Z,17.26
2019-05-19T09:43:18.897Z,17.30
2019-05-19T09:45:45.693Z,17.17
2019-05-19T09:48:12.471Z,17.18
2019-05-19T09:50:39.252Z,17.51
2019-05-19T09:53:05.934Z,17.90
2019-05-19T09:55:32.662Z,17.97
2019-05-19T09:57:59.474Z,18.33
2019-05-19T10:00:26.403Z,18.63
2019-05-19T10:02:53.102Z,18.72
2019-05-19T10:05:20.296Z,18.81
2019-05-19T10:07:47.020Z,18.91
2019-05-19T10:10:16.687Z,18.86
2019-05-19T10:12:45.731Z,19.03
2019-05-19T10:15:13.488Z,19.00
2019-05-19T10:17:40.173Z,19.29
2019-05-19T10:20:07.568Z,19.42
2019-05-19T10:22:34.402Z,19.38
2019-05-19T10:25:20.387Z,19.56
2019-05-19T10:27:29.896Z,19.77
2019-05-19T10:29:56.563Z,19.81
2019-05-19T10:32:23.322Z,20.04
2019-05-19T10:34:50.251Z,20.27
2019-05-19T10:37:16.937Z,20.25
2019-05-19T10:39:43.839Z,20.47
2019-05-19T10:42:10.587Z,20.56
2019-05-19T10:44:37.406Z,20.61
2019-05-19T10:47:04.255Z,20.71
2019-05-19T10:49:31.019Z,20.89
2019-05-19T10:51:57.926Z,20.86
2019-05-19T10:54:24.703Z,20.94
2019-05-19T10:56:51.489Z,21.17
2019-05-19T10:59:18.295Z,21.51
2019-05-19T11:01:44.960Z,21.59
2019-05-19T11:04:11.745Z,21.51
2019-05-19T11:06:38.434Z,21.51
2019-05-19T11:09:06.124Z,21.34
2019-05-19T11:11:32.989Z,21.39
2019-05-19T11:13:59.682Z,21.50
2019-05-19T11:16:26.445Z,21.26
2019-05-19T11:18:53.210Z,21.71
2019-05-19T11:21:19.931Z,21.77
2019-05-19T11:23:46.782Z,21.95
2019-05-19T11:26:13.561Z,21.99
2019-05-19T11:28:40.257Z,22.35
2019-05-19T11:31:07.029Z,21.84
2019-05-19T11:33:33.686Z,21.94
2019-05-19T11:36:00.405Z,21.98
2019-05-19T11:38:27.076Z,21.93
2019-05-19T11:40:53.801Z,21.84
2019-05-19T11:43:20.442Z,21.98
2019-05-19T11:45:48.328Z,22.04
2019-05-19T11:48:15.027Z,22.15
2019-05-19T11:50:42.305Z,22.47
2019-05-19T11:53:09.179Z,22.68
2019-05-19T11:55:36.282Z,22.58
2019-05-19T11:58:02.973Z,22.74
2019-05-19T12:00:29.859Z,22.92
2019-05-19T12:02:56.530Z,22.94
2019-05-19T12:05:23.560Z,22.95
2019-05-19T12:07:50.912Z,23.08
2019-05-19T12:10:17.739Z,23.14
2019-05-19T12:12:44.438Z,22.91
2019-05-19T12:15:11.433Z,23.04
2019-05-19T12:17:38.094Z,23.21
2019-05-19T12:20:04.910Z,23.76
2019-05-19T12:22:31.699Z,23.70
2019-05-19T12:24:58.486Z,23.63
2019-05-19T12:27:25.289Z,24.17
2019-05-19T12:29:52.118Z,24.63
2019-05-19T12:32:18.867Z,24.51
2019-05-19T12:34:45.538Z,25.04
2019-05-19T12:37:12.239Z,25.18
2019-05-19T12:39:38.917Z,25.21
2019-05-19T12:42:05.757Z,25.22
2019-05-19T12:44:32.588Z,25.07
2019-05-19T12:46:59.284Z,25.56
2019-05-19T12:49:26.050Z,25.78
2019-05-19T12:51:52.953Z,25.25
2019-05-19T12:54:19.634Z,25.12
2019-05-19T12:56:46.306Z,24.95
2019-05-19T12:59:13.295Z,25.38
2019-05-19T13:01:40.515Z,25.09
2019-05-19T13:04:07.357Z,25.01
2019-05-19T13:06:34.042Z,24.85
2019-05-19T13:09:00.762Z,24.95
2019-05-19T13:11:27.459Z,25.37
2019-05-19T13:13:54.149Z,25.80
2019-05-19T13:16:20.932Z,25.62
2019-05-19T13:18:47.613Z,25.54
2019-05-19T13:21:14.403Z,25.71
2019-05-19T13:23:41.118Z,25.62
2019-05-19T13:26:07.906Z,25.80
2019-05-19T13:28:34.587Z,25.75
2019-05-19T13:31:01.262Z,24.94
2019-05-19T13:33:28.134Z,25.10
2019-05-19T13:35:54.797Z,25.19
2019-05-19T13:38:21.478Z,25.50
2019-05-19T13:40:48.260Z,25.12
2019-05-19T13:43:15.038Z,24.68
2019-05-19T13:45:42.859Z,24.80
2019-05-19T13:48:09.573Z,24.98
2019-05-19T13:50:36.246Z,24.65
2019-05-19T13:53:03.026Z,24.41
2019-05-19T13:55:30.018Z,24.61
2019-05-19T13:57:56.797Z,24.60
2019-05-19T14:00:23.595Z,24.74
2019-05-19T14:02:50.282Z,24.20
2019-05-19T14:05:17.081Z,23.95
2019-05-19T14:07:44.874Z,23.69
2019-05-19T14:10:12.070Z,23.33
2019-05-19T14:12:38.872Z,23.34
2019-05-19T14:15:05.872Z,23.59
2019-05-19T14:17:33.693Z,23.54
2019-05-19T14:20:00.598Z,23.42
2019-05-19T14:22:27.310Z,23.38
2019-05-19T14:24:53.974Z,23.47
2019-05-19T14:27:29.606Z,23.36
2019-05-19T14:29:49.344Z,23.32
2019-05-19T14:32:17.188Z,23.53
2019-05-19T14:34:44.080Z,23.60
2019-05-19T14:37:10.881Z,23.36
2019-05-19T14:39:37.662Z,23.19
2019-05-19T14:42:08.074Z,23.08
2019-05-19T14:44:34.761Z,22.97
2019-05-19T14:47:01.586Z,22.70
2019-05-19T14:49:28.385Z,22.51
2019-05-19T14:51:55.093Z,22.24
2019-05-19T14:54:21.809Z,22.21
2019-05-19T14:56:48.492Z,22.19
2019-05-19T14:59:15.164Z,22.28
2019-05-19T15:01:41.942Z,22.24
2019-05-19T15:04:08.610Z,22.11
2019-05-19T15:06:35.372Z,22.21
2019-05-19T15:09:02.243Z,22.13
2019-05-19T15:11:30.362Z,22.04
2019-05-19T15:13:57.061Z,21.99
2019-05-19T15:16:23.776Z,21.88
2019-05-19T15:18:50.467Z,21.71
2019-05-19T15:21:17.167Z,21.64
2019-05-19T15:23:43.900Z,21.68
2019-05-19T15:26:10.590Z,21.62
2019-05-19T15:28:37.294Z,21.61
2019-05-19T15:31:04.027Z,21.64
2019-05-19T15:33:37.697Z,21.61
2019-05-19T15:35:59.313Z,21.68
2019-05-19T15:38:26.334Z,21.69
2019-05-19T15:40:53.039Z,21.64
2019-05-19T15:43:19.807Z,21.76
2019-05-19T15:45:46.477Z,21.45
2019-05-19T15:48:14.203Z,21.43
2019-05-19T15:50:40.878Z,21.31
2019-05-19T15:53:07.560Z,21.35
2019-05-19T15:55:34.341Z,21.09
2019-05-19T15:58:15.566Z,21.02
2019-05-19T16:00:29.686Z,20.90
2019-05-19T16:02:56.531Z,20.69
2019-05-19T16:05:23.243Z,20.61
2019-05-19T16:07:49.920Z,20.47
2019-05-19T16:10:16.713Z,20.55
2019-05-19T16:12:43.405Z,20.55
2019-05-19T16:15:10.385Z,20.53
2019-05-19T16:17:37.074Z,20.49
2019-05-19T16:20:05.060Z,20.55
2019-05-19T16:22:31.733Z,20.57
2019-05-19T16:24:58.398Z,20.47
2019-05-19T16:27:25.351Z,20.41
2019-05-19T16:29:52.107Z,20.35
2019-05-19T16:32:18.942Z,20.25
2019-05-19T16:34:45.636Z,20.22
2019-05-19T16:37:12.328Z,20.32
2019-05-19T16:39:38.986Z,20.31
2019-05-19T16:42:05.862Z,20.35
2019-05-19T16:44:32.632Z,20.41
2019-05-19T16:46:59.505Z,20.49
2019-05-19T16:49:26.193Z,20.51
2019-05-19T16:51:53.121Z,20.48
2019-05-19T16:54:24.959Z,20.39
2019-05-19T16:56:52.019Z,20.40
2019-05-19T16:59:19.190Z,20.34
2019-05-19T17:01:45.911Z,20.27
2019-05-19T17:04:12.779Z,20.26
2019-05-19T17:06:41.391Z,20.15
2019-05-19T17:09:08.573Z,19.96
2019-05-19T17:11:35.975Z,20.00
2019-05-19T17:14:03.070Z,20.14
2019-05-19T17:16:29.755Z,19.92
2019-05-19T17:18:56.407Z,19.95
2019-05-19T17:21:24.356Z,20.00
2019-05-19T17:23:51.569Z,19.95
2019-05-19T17:26:18.199Z,19.89
2019-05-19T17:28:59.579Z,19.89
2019-05-19T17:31:13.754Z,19.76
2019-05-19T17:33:41.605Z,19.71
2019-05-19T17:36:08.912Z,19.58
2019-05-19T17:38:35.838Z,19.47
2019-05-19T17:41:02.616Z,19.42
2019-05-19T17:43:29.396Z,19.42
2019-05-19T17:45:56.147Z,19.38
2019-05-19T17:48:26.615Z,19.28
2019-05-19T17:50:51.531Z,19.24
2019-05-19T17:53:18.523Z,19.15
2019-05-19T17:55:45.498Z,19.17
2019-05-19T17:58:12.285Z,19.17
2019-05-19T18:00:39.785Z,19.19
2019-05-19T18:03:09.206Z,19.19
2019-05-19T18:05:36.142Z,19.04
2019-05-19T18:08:03.139Z,19.10
2019-05-19T18:10:29.934Z,18.82
2019-05-19T18:12:56.833Z,18.73
2019-05-19T18:15:24.794Z,18.56
2019-05-19T18:17:51.583Z,18.37
2019-05-19T18:20:23.640Z,18.23
2019-05-19T18:22:47.190Z,18.18
2019-05-19T18:25:13.989Z,17.88
2019-05-19T18:27:41.078Z,17.91
2019-05-19T18:30:08.143Z,17.90
2019-05-19T18:32:34.818Z,17.67
2019-05-19T18:35:01.691Z,17.77
2019-05-19T18:37:28.348Z,17.51
2019-05-19T18:39:55.015Z,17.39
2019-05-19T18:42:21.804Z,17.32
2019-05-19T18:44:51.794Z,17.12
2019-05-19T18:47:21.085Z,16.96
2019-05-19T18:49:48.216Z,16.81
2019-05-19T18:52:15.305Z,16.69
2019-05-19T18:54:42.073Z,16.65
2019-05-19T18:57:08.811Z,16.47
2019-05-19T18:59:47.051Z,16.36
2019-05-19T19:02:04.402Z,16.24
2019-05-19T19:04:31.301Z,16.20
2019-05-19T19:06:58.295Z,16.14
2019-05-19T19:09:24.981Z,16.14
2019-05-19T19:11:51.700Z,16.23
2019-05-19T19:14:18.505Z,16.00
2019-05-19T19:16:45.196Z,15.84
2019-05-19T19:19:11.859Z,15.77
2019-05-19T19:21:38.543Z,15.66
2019-05-19T19:24:05.318Z,15.66
2019-05-19T19:26:32.453Z,15.73
2019-05-19T19:28:59.157Z,15.64
2019-05-19T19:31:25.928Z,15.77
2019-05-19T19:33:52.740Z,15.98
2019-05-19T19:36:20.498Z,15.94
2019-05-19T19:38:47.343Z,16.06
2019-05-19T19:41:15.336Z,16.04
2019-05-19T19:43:41.998Z,15.84
2019-05-19T19:46:08.690Z,15.86
2019-05-19T19:48:35.474Z,15.94
2019-05-19T19:51:02.241Z,15.87
2019-05-19T19:53:29.022Z,15.93
2019-05-19T19:55:55.852Z,15.81
2019-05-19T19:58:22.676Z,15.86
2019-05-19T20:00:49.522Z,15.95
2019-05-19T20:03:16.538Z,15.86
2019-05-19T20:05:45.639Z,15.83
2019-05-19T20:08:12.541Z,15.74
2019-05-19T20:10:39.345Z,15.79
2019-05-19T20:13:06.019Z,15.77
2019-05-19T20:15:33.259Z,15.64
2019-05-19T20:18:00.236Z,15.44
2019-05-19T20:20:27.011Z,15.44
2019-05-19T20:22:54.990Z,15.38
2019-05-19T20:25:23.943Z,15.46
2019-05-19T20:27:50.891Z,15.57
2019-05-19T20:30:33.632Z,15.41
2019-05-19T20:32:46.271Z,15.35
2019-05-19T20:35:13.173Z,15.17
2019-05-19T20:38:02.602Z,15.13
2019-05-19T20:40:29.383Z,15.03
2019-05-19T20:42:56.935Z,15.02
2019-05-19T20:45:23.970Z,14.96
2019-05-19T20:47:50.998Z,14.92
2019-05-19T20:50:17.865Z,14.97
2019-05-19T20:52:44.533Z,14.97
2019-05-19T20:55:11.418Z,14.98
2019-05-19T20:57:38.117Z,14.95
2019-05-19T21:00:05.994Z,14.92
2019-05-19T21:02:33.187Z,14.83
2019-05-19T21:04:59.849Z,14.94
2019-05-19T21:07:26.538Z,14.93
2019-05-19T21:09:55.649Z,14.87
2019-05-19T21:12:22.442Z,14.76
2019-05-19T21:14:49.213Z,14.78
2019-05-19T21:17:15.892Z,14.73
2019-05-19T21:19:44.670Z,14.74
2019-05-19T21:22:11.446Z,14.82
2019-05-19T21:24:38.169Z,14.73
2019-05-19T21:27:04.885Z,14.76
2019-05-19T21:29:31.547Z,14.79
2019-05-19T21:31:58.320Z,14.70
2019-05-19T21:34:25.041Z,14.78
2019-05-19T21:36:51.740Z,14.70
2019-05-19T21:39:18.410Z,14.62
2019-05-19T21:42:08.326Z,14.60
2019-05-19T21:44:35.048Z,14.62
2019-05-19T21:47:01.690Z,14.63
2019-05-19T21:49:28.361Z,14.50
2019-05-19T21:51:55.075Z,14.52
2019-05-19T21:54:21.845Z,14.47
2019-05-19T21:56:48.514Z,14.40
2019-05-19T21:59:17.204Z,14.41
2019-05-19T22:01:44.418Z,14.42
2019-05-19T22:04:11.494Z,14.43
2019-05-19T22:06:40.212Z,14.29
2019-05-19T22:09:07.270Z,14.26
2019-05-19T22:11:34.357Z,14.29
2019-05-19T22:14:01.041Z,14.31
2019-05-19T22:16:30.077Z,14.29
2019-05-19T22:18:56.894Z,14.11
2019-05-19T22:21:23.628Z,14.05
2019-05-19T22:23:50.336Z,14.11
2019-05-19T22:26:19.163Z,14.01
2019-05-19T22:28:46.031Z,13.63
2019-05-19T22:31:13.808Z,13.84
2019-05-19T22:33:40.520Z,13.79
2019-05-19T22:36:09.500Z,13.86
2019-05-19T22:38:36.649Z,13.83
2019-05-19T22:41:03.572Z,13.76
2019-05-19T22:43:30.246Z,13.58
2019-05-19T22:45:56.931Z,13.53
2019-05-19T22:48:23.611Z,13.64
2019-05-19T22:50:50.299Z,13.64
2019-05-19T22:53:17.009Z,13.59
2019-05-19T22:55:43.768Z,13.53
2019-05-19T22:58:10.437Z,13.61
2019-05-19T23:00:37.233Z,13.58
2019-05-19T23:03:03.914Z,13.65
2019-05-19T23:05:30.694Z,13.70
2019-05-19T23:07:57.837Z,13.70
2019-05-19T23:10:24.724Z,13.62
2019-05-19T23:12:51.410Z,13.67
2019-05-19T23:15:19.141Z,13.68
2019-05-19T23:17:45.925Z,13.66
2019-05-19T23:20:13.658Z,13.68
2019-05-19T23:22:40.463Z,13.52
2019-05-19T23:25:07.335Z,13.57
2019-05-19T23:27:34.102Z,13.57
2019-05-19T23:30:00.826Z,13.48
2019-05-19T23:32:27.573Z,13.51
2019-05-19T23:34:54.356Z,13.48
2019-05-19T23:37:21.222Z,13.45
2019-05-19T23:39:48.005Z,13.43
2019-05-19T23:42:14.696Z,13.45
2019-05-19T23:44:41.441Z,13.51
2019-05-19T23:47:08.234Z,13.52
2019-05-19T23:49:34.926Z,13.49
2019-05-19T23:52:01.574Z,13.49
2019-05-19T23:54:28.261Z,13.26
2019-05-19T23:56:54.938Z,13.36
2019-05-19T23:59:22.052Z,13.24
